Time;durP1;ratioP1;P1;durP2;ratioP2;P2;SDS_P1;SDS_P2;PMS_P1;PMS_P2;Temp;Humidity;BMP_temperature;BMP_pressure;BME280_temperature;BME280_humidity;BME280_pressure;Samples;Min_cycle;Max_cycle;Signal;HPM_P1;HPM_P2
2022/08/17 00:00:05;;;;;;;7.93;5.80;;;;;;;25.92;43.51;100848.38;5036979;28;20057;-63
2022/08/17 00:02:32;;;;;;;8.30;5.55;;;;;;;25.91;43.32;100844.00;5029510;28;20061;-63
2022/08/17 00:05:11;;;;;;;9.35;6.13;;;;;;;25.88;43.28;100846.59;5029366;28;20066;-63
2022/08/17 00:07:38;;;;;;;10.75;6.05;;;;;;;25.88;43.48;100843.84;5029318;28;20080;-63
2022/08/17 00:10:07;;;;;;;9.90;6.22;;;;;;;25.86;43.68;100835.91;5029696;28;20411;-63
2022/08/17 00:12:40;;;;;;;8.30;5.70;;;;;;;25.85;43.52;100833.47;5029165;28;20054;-63
2022/08/17 00:15:12;;;;;;;9.10;5.80;;;;;;;25.76;43.84;100811.44;5029132;28;20514;-63
2022/08/17 00:17:40;;;;;;;9.63;6.57;;;;;;;25.82;43.74;100818.41;5037469;28;20069;-63
2022/08/17 00:20:12;;;;;;;7.63;6.78;;;;;;;25.81;44.02;100814.03;5048856;28;20050;-63
2022/08/17 00:22:41;;;;;;;8.93;6.40;;;;;;;25.82;43.98;100814.84;5041552;28;20499;-63
2022/08/17 00:25:12;;;;;;;7.93;5.97;;;;;;;25.80;43.75;100808.84;5029222;28;20053;-63
2022/08/17 00:27:40;;;;;;;7.53;6.55;;;;;;;25.80;43.58;100814.38;5028955;28;20519;-63
2022/08/17 00:30:12;;;;;;;12.43;6.03;;;;;;;25.79;43.70;100819.06;5036159;28;20085;-63
2022/08/17 00:32:42;;;;;;;7.10;6.22;;;;;;;25.79;44.06;100812.75;5048811;28;20053;-63
2022/08/17 00:35:31;;;;;;;7.90;5.90;;;;;;;25.76;44.09;100802.38;5047816;28;20113;-63
2022/08/17 00:37:58;;;;;;;7.25;5.80;;;;;;;25.77;44.05;100804.81;5030481;28;20053;-63
2022/08/17 00:40:26;;;;;;;8.80;7.25;;;;;;;25.76;43.94;100803.19;5028484;28;20049;-63
2022/08/17 00:43:15;;;;;;;6.55;5.63;;;;;;;25.75;43.89;100809.81;5035675;28;20061;-63
2022/08/17 00:45:43;;;;;;;8.43;7.22;;;;;;;25.75;44.11;100809.03;5048303;28;20077;-63
2022/08/17 00:48:11;;;;;;;7.45;6.40;;;;;;;25.73;43.92;100803.03;5036412;28;20061;-63
2022/08/17 00:51:05;;;;;;;7.93;6.90;;;;;;;25.72;44.41;100810.47;5028757;28;20053;-62
2022/08/17 00:53:35;;;;;;;7.05;6.28;;;;;;;25.71;44.32;100806.09;5028451;28;20081;-63
2022/08/17 00:56:07;;;;;;;8.93;6.22;;;;;;;25.70;44.33;100804.47;5028538;28;20056;-63
2022/08/17 00:58:36;;;;;;;12.38;7.72;;;;;;;25.69;44.33;100808.38;5028521;28;20057;-62
2022/08/17 01:01:05;;;;;;;8.23;6.35;;;;;;;25.68;44.49;100806.75;5028299;28;20476;-63
2022/08/17 01:03:34;;;;;;;7.82;6.35;;;;;;;25.67;44.49;100812.59;5028316;28;20054;-63
2022/08/17 01:06:06;;;;;;;6.95;6.20;;;;;;;25.65;44.52;100801.91;5028638;28;20084;-63
2022/08/17 01:08:35;;;;;;;7.40;6.32;;;;;;;25.66;44.53;100800.75;5027656;28;20054;-63
2022/08/17 01:11:04;;;;;;;9.13;6.45;;;;;;;25.65;44.84;100792.84;5028262;28;20077;-63
2022/08/17 01:13:35;;;;;;;11.02;6.20;;;;;;;25.64;44.57;100797.50;5028318;28;20054;-63
2022/08/17 01:16:15;;;;;;;10.48;6.30;;;;;;;25.62;44.50;100795.06;5028186;28;20132;-63
2022/08/17 01:18:45;;;;;;;9.13;6.78;;;;;;;25.59;44.65;100790.22;5028320;28;20102;-63
2022/08/17 01:21:22;;;;;;;8.63;6.40;;;;;;;25.58;44.71;100788.59;5028111;28;20050;-63
2022/08/17 01:23:51;;;;;;;7.85;6.47;;;;;;;25.57;44.65;100788.91;5028266;28;20089;-63
2022/08/17 01:26:19;;;;;;;9.85;7.15;;;;;;;25.55;44.98;100788.44;5028037;28;20046;-63
2022/08/17 01:28:48;;;;;;;8.85;6.25;;;;;;;25.54;45.06;100789.56;5027803;28;20073;-63
2022/08/17 01:31:24;;;;;;;9.65;7.20;;;;;;;25.52;45.02;100781.63;5027630;28;20392;-63
2022/08/17 01:33:52;;;;;;;8.63;7.25;;;;;;;25.51;44.95;100776.44;5027890;28;20471;-63
2022/08/17 01:36:20;;;;;;;8.55;7.20;;;;;;;25.49;45.00;100779.53;5027931;28;20092;-63
2022/08/17 01:38:48;;;;;;;10.90;6.32;;;;;;;25.49;45.12;100778.72;5027985;28;20491;-63
2022/08/17 01:41:20;;;;;;;8.30;6.47;;;;;;;25.45;45.15;100773.03;5027869;28;20078;-63
2022/08/17 01:43:52;;;;;;;9.77;6.18;;;;;;;25.46;45.30;100771.09;5027483;28;20092;-63
2022/08/17 01:46:22;;;;;;;7.97;5.65;;;;;;;25.44;45.09;100771.44;5027136;28;20412;-63
2022/08/17 01:48:50;;;;;;;7.22;6.45;;;;;;;25.43;45.12;100766.25;5039850;28;20045;-63
2022/08/17 01:51:19;;;;;;;7.93;6.28;;;;;;;25.42;45.37;100756.38;5047366;28;20046;-63
2022/08/17 01:53:50;;;;;;;7.68;6.88;;;;;;;25.41;45.43;100763.81;5046551;28;20049;-63
2022/08/17 01:56:22;;;;;;;8.52;7.20;;;;;;;25.39;45.55;100757.81;5047253;28;20057;-63
2022/08/17 01:58:50;;;;;;;7.65;6.85;;;;;;;25.38;45.60;100766.41;5047311;28;20073;-62
2022/08/17 02:01:21;;;;;;;12.48;6.60;;;;;;;25.37;45.40;100762.84;5046614;28;20049;-63
2022/08/17 02:03:49;;;;;;;9.63;6.90;;;;;;;25.36;45.17;100769.47;5027559;28;20060;-63
2022/08/17 02:06:27;;;;;;;8.45;6.47;;;;;;;25.36;45.35;100761.22;5027289;28;20073;-63
2022/08/17 02:08:56;;;;;;;8.35;6.55;;;;;;;25.34;45.61;100760.75;5027254;28;20058;-62
2022/08/17 02:11:33;;;;;;;11.85;6.95;;;;;;;25.30;45.31;100755.06;5027387;28;20053;-63
2022/08/17 02:14:01;;;;;;;9.07;7.60;;;;;;;25.31;45.73;100753.13;5027059;28;20077;-63
2022/08/17 02:16:32;;;;;;;10.65;6.85;;;;;;;25.33;45.53;100763.81;5026629;28;20085;-63
2022/08/17 02:19:04;;;;;;;10.50;7.07;;;;;;;25.32;45.76;100753.94;5027253;28;20049;-63
2022/08/17 02:21:32;;;;;;;10.65;7.07;;;;;;;25.32;45.86;100749.25;5026755;28;20077;-62
2022/08/17 02:24:00;;;;;;;10.68;7.78;;;;;;;25.30;46.02;100751.50;5027135;28;20077;-62
2022/08/17 02:26:28;;;;;;;8.27;6.55;;;;;;;25.30;45.87;100748.75;5028913;28;20053;-62
2022/08/17 02:28:57;;;;;;;10.07;7.22;;;;;;;25.28;45.49;100754.59;5046707;28;20073;-62
2022/08/17 02:31:24;;;;;;;9.10;6.75;;;;;;;25.28;45.71;100751.03;5046220;28;20049;-62
2022/08/17 02:33:52;;;;;;;8.57;7.03;;;;;;;25.26;45.57;100745.84;5046782;28;20088;-62
2022/08/17 02:36:32;;;;;;;8.73;7.05;;;;;;;25.26;45.96;100747.78;5045403;28;20046;-62
2022/08/17 02:39:00;;;;;;;10.32;6.50;;;;;;;25.25;45.70;100735.97;5045442;28;20077;-62
2022/08/17 02:41:28;;;;;;;8.77;6.88;;;;;;;25.25;45.60;100737.91;5046249;28;20109;-62
2022/08/17 02:43:57;;;;;;;9.93;7.00;;;;;;;25.23;45.88;100734.69;5046096;28;20053;-62
2022/08/17 02:46:25;;;;;;;10.82;6.88;;;;;;;25.21;45.92;100737.75;5045409;28;20088;-61
2022/08/17 02:48:52;;;;;;;9.25;6.07;;;;;;;25.21;45.83;100735.00;5046051;28;20056;-61
2022/08/17 02:51:20;;;;;;;10.25;7.22;;;;;;;25.20;45.83;100729.81;5037806;28;20145;-61
2022/08/17 02:53:48;;;;;;;8.10;7.10;;;;;;;25.19;45.72;100729.00;5026201;28;20054;-61
2022/08/17 02:56:16;;;;;;;10.30;6.97;;;;;;;25.17;46.05;100731.28;5026790;28;20041;-61
2022/08/17 02:58:43;;;;;;;8.50;6.97;;;;;;;25.17;45.80;100731.28;5026460;28;20084;-61
2022/08/17 03:01:13;;;;;;;8.25;6.78;;;;;;;25.16;45.95;100729.66;5026037;28;20133;-61
2022/08/17 03:03:41;;;;;;;9.35;8.07;;;;;;;25.16;45.89;100729.66;5035629;28;20049;-61
2022/08/17 03:06:09;;;;;;;9.82;6.72;;;;;;;25.15;46.07;100727.22;5046247;28;20053;-63
2022/08/17 03:08:37;;;;;;;10.70;7.55;;;;;;;25.11;46.09;100724.31;5046038;28;20049;-63
2022/08/17 03:11:05;;;;;;;9.10;7.07;;;;;;;25.10;46.24;100719.94;5031440;28;20050;-63
2022/08/17 03:13:32;;;;;;;7.88;6.80;;;;;;;25.09;46.34;100725.78;5026044;28;20089;-63
2022/08/17 03:16:00;;;;;;;7.53;6.53;;;;;;;25.08;46.09;100726.91;5025831;28;20076;-63
2022/08/17 03:18:29;;;;;;;10.98;7.13;;;;;;;25.05;46.56;100717.34;5026068;28;20049;-63
2022/08/17 03:20:59;;;;;;;9.73;7.30;;;;;;;25.04;46.24;100723.97;5026283;28;20108;-63
2022/08/17 03:23:27;;;;;;;8.13;6.75;;;;;;;25.03;46.62;100727.06;5026370;28;20046;-63
2022/08/17 03:25:57;;;;;;;8.52;6.78;;;;;;;25.02;46.25;100726.25;5026136;28;20046;-63
2022/08/17 03:28:27;;;;;;;10.68;7.00;;;;;;;25.00;46.61;100731.25;5026051;28;20499;-61
2022/08/17 03:30:54;;;;;;;8.75;7.55;;;;;;;24.99;46.79;100732.38;5026084;28;20057;-63
2022/08/17 03:33:22;;;;;;;9.35;7.07;;;;;;;24.95;46.73;100726.69;5029413;28;20137;-63
2022/08/17 03:35:52;;;;;;;7.63;6.85;;;;;;;24.92;46.68;100724.59;5030437;28;20088;-63
2022/08/17 03:38:20;;;;;;;9.43;7.38;;;;;;;24.84;46.82;100708.88;5030048;28;20053;-63
2022/08/17 03:40:50;;;;;;;7.30;6.55;;;;;;;24.89;46.55;100729.91;5030045;28;20064;-63
2022/08/17 03:43:28;;;;;;;9.55;7.15;;;;;;;24.84;46.73;100724.56;5029904;28;20046;-63
2022/08/17 03:57:16;;;;;;;8.05;7.25;;;;;;;24.81;47.20;100747.19;5029946;28;20073;-62
2022/08/17 03:59:44;;;;;;;10.30;7.43;;;;;;;24.79;47.14;100753.00;5029571;28;20046;-62
2022/08/17 04:02:17;;;;;;;11.13;7.32;;;;;;;24.77;46.74;100749.78;5029462;28;20128;-62
2022/08/17 04:04:45;;;;;;;8.43;6.88;;;;;;;24.77;47.15;100759.97;5029498;28;20057;-61
2022/08/17 04:07:14;;;;;;;8.15;7.05;;;;;;;24.76;47.10;100758.34;5029484;28;20060;-62
2022/08/17 04:09:42;;;;;;;12.77;8.15;;;;;;;24.75;46.79;100752.03;5043321;28;20060;-62
2022/08/17 04:12:10;;;;;;;9.10;7.57;;;;;;;24.73;47.00;100759.78;5049151;28;20073;-62
2022/08/17 04:14:38;;;;;;;9.50;8.50;;;;;;;24.74;47.76;100757.84;5048869;28;20053;-62
2022/08/17 04:17:20;;;;;;;12.27;7.97;;;;;;;24.73;47.55;100762.53;5032876;28;20077;-62
2022/08/17 04:19:48;;;;;;;11.15;8.45;;;;;;;24.72;47.19;100760.91;5029370;28;20050;-62
2022/08/17 04:22:17;;;;;;;8.70;7.30;;;;;;;24.71;47.14;100770.28;5029427;28;20045;-62
2022/08/17 04:25:06;;;;;;;9.45;8.45;;;;;;;24.70;47.77;100795.34;5029336;28;20045;-62
2022/08/17 04:27:34;;;;;;;8.75;7.82;;;;;;;24.69;47.86;100829.47;5029276;28;20060;-62
2022/08/17 04:30:02;;;;;;;9.60;8.60;;;;;;;24.66;48.32;100850.94;5028806;28;20060;-62
2022/08/17 04:32:30;;;;;;;10.63;8.75;;;;;;;24.65;47.79;100834.78;5029027;28;20053;-62
2022/08/17 04:35:20;;;;;;;12.35;8.82;;;;;;;24.63;47.92;100823.28;5028580;28;20117;-62
2022/08/17 04:37:49;;;;;;;13.65;9.45;;;;;;;24.63;48.25;100848.03;5036738;28;20045;-62
2022/08/17 04:43:07;;;;;;;13.27;9.27;;;;;;;24.59;48.60;100842.34;5048017;28;20109;-62
2022/08/17 04:45:38;;;;;;;15.35;9.93;;;;;;;24.57;48.70;100835.53;5046710;28;20057;-62
2022/08/17 04:48:21;;;;;;;11.48;9.93;;;;;;;24.56;48.83;100844.91;5048389;28;20109;-62
2022/08/17 04:50:54;;;;;;;15.30;11.07;;;;;;;24.55;49.18;100840.53;5043880;28;20093;-62
2022/08/17 04:53:23;;;;;;;14.43;11.48;;;;;;;24.53;49.15;100826.31;5028436;28;20064;-62
2022/08/17 04:55:52;;;;;;;13.75;10.48;;;;;;;24.46;48.91;100806.72;5028768;28;20081;-62
2022/08/17 04:58:20;;;;;;;16.88;10.70;;;;;;;24.51;49.51;100812.88;5028333;28;20049;-62
2022/08/17 05:00:48;;;;;;;13.85;11.43;;;;;;;24.51;49.75;100803.84;5036735;28;20049;-62
2022/08/17 05:03:16;;;;;;;13.07;10.98;;;;;;;24.49;49.58;100819.81;5048064;28;20106;-62
2022/08/17 05:05:48;;;;;;;12.48;10.95;;;;;;;24.46;49.79;100807.53;5030463;28;20057;-63
2022/08/17 05:08:19;;;;;;;16.48;12.40;;;;;;;24.45;50.33;100813.34;5028597;28;20073;-62
2022/08/17 05:10:48;;;;;;;16.55;13.38;;;;;;;24.42;50.74;100812.03;5028333;28;20050;-62
2022/08/17 05:13:18;;;;;;;14.40;11.73;;;;;;;24.42;50.78;100817.53;5027958;28;20046;-61
2022/08/17 05:15:47;;;;;;;13.93;10.95;;;;;;;24.40;50.56;100824.47;5028135;28;20088;-62
2022/08/17 05:18:17;;;;;;;12.50;11.10;;;;;;;24.40;50.98;100818.97;5028044;28;20084;-62
2022/08/17 05:20:45;;;;;;;14.20;11.40;;;;;;;24.38;50.17;100819.28;5028065;28;20050;-62
2022/08/17 05:23:15;;;;;;;11.30;9.80;;;;;;;24.39;50.11;100817.34;5027784;28;20514;-61
2022/08/17 05:25:45;;;;;;;11.48;10.10;;;;;;;24.38;50.06;100815.72;5028464;28;20069;-61
2022/08/17 05:28:16;;;;;;;13.40;10.73;;;;;;;24.36;50.19;100815.22;5028076;28;20053;-61
2022/08/17 05:30:45;;;;;;;11.05;9.75;;;;;;;24.33;50.76;100817.47;5027683;28;20050;-61
2022/08/17 05:33:18;;;;;;;13.15;11.10;;;;;;;24.34;51.01;100823.78;5027777;28;20647;-61
2022/08/17 05:35:48;;;;;;;13.25;9.88;;;;;;;24.33;50.85;100819.41;5027774;28;20137;-61
2022/08/17 05:38:18;;;;;;;13.80;9.90;;;;;;;24.33;50.50;100817.47;5027356;28;20057;-61
2022/08/17 05:40:46;;;;;;;14.48;8.88;;;;;;;24.32;50.29;100823.28;5047381;28;20076;-61
2022/08/17 05:43:21;;;;;;;12.77;9.48;;;;;;;24.30;50.64;100828.28;5036722;28;20088;-61
2022/08/17 05:45:56;;;;;;;12.63;10.10;;;;;;;24.29;50.55;100835.72;5027317;28;20077;-61
2022/08/17 05:48:24;;;;;;;13.00;10.75;;;;;;;24.28;51.13;100834.09;5027722;28;20148;-61
2022/08/17 05:51:31;;;;;;;17.17;10.30;;;;;;;24.28;51.33;100838.78;5027563;28;20045;-61
2022/08/17 05:54:09;;;;;;;13.25;10.10;;;;;;;24.26;51.10;100833.63;5027313;28;20076;-61
2022/08/17 05:56:59;;;;;;;11.80;10.20;;;;;;;24.24;51.35;100830.34;5043771;28;20085;-61
2022/08/17 05:59:43;;;;;;;13.43;9.52;;;;;;;24.26;50.86;100827.31;5046730;28;20515;-62
2022/08/17 06:02:20;;;;;;;12.82;8.93;;;;;;;24.25;50.69;100822.94;5029872;28;20088;-61
2022/08/17 06:05:05;;;;;;;11.48;9.18;;;;;;;24.20;50.43;100817.56;5027132;28;20085;-61
2022/08/17 06:07:41;;;;;;;11.27;8.70;;;;;;;24.28;50.70;100822.28;5027188;28;20077;-62
2022/08/17 06:10:17;;;;;;;11.43;9.52;;;;;;;24.28;50.60;100819.56;5027438;28;20050;-62
2022/08/17 06:13:00;;;;;;;11.48;9.65;;;;;;;24.29;50.75;100824.72;5036928;28;20056;-62
2022/08/17 06:15:35;;;;;;;11.85;9.85;;;;;;;24.29;51.08;100824.72;5046406;28;20080;-62
2022/08/17 06:18:08;;;;;;;9.77;8.52;;;;;;;24.30;51.33;100826.34;5046759;28;20056;-62
2022/08/17 06:20:46;;;;;;;11.73;9.93;;;;;;;24.30;50.86;100826.34;5046184;28;20050;-62
2022/08/17 06:23:24;;;;;;;11.48;9.05;;;;;;;24.29;50.75;100838.47;5046403;28;20514;-62
2022/08/17 06:25:58;;;;;;;15.90;8.95;;;;;;;24.28;50.87;100842.34;5046870;28;20081;-62
2022/08/17 06:28:35;;;;;;;14.18;10.10;;;;;;;24.29;50.81;100843.16;5046642;28;20084;-62
2022/08/17 06:31:11;;;;;;;12.07;9.35;;;;;;;24.29;51.17;100848.63;5030657;28;20054;-62
2022/08/17 06:33:43;;;;;;;11.40;9.38;;;;;;;24.29;51.26;100843.16;5026672;28;20512;-62
2022/08/17 06:36:35;;;;;;;13.82;8.90;;;;;;;24.28;51.01;100853.31;5026996;28;20499;-62
2022/08/17 06:39:20;;;;;;;13.63;9.07;;;;;;;24.26;51.39;100839.13;5026878;28;20050;-61
2022/08/17 06:41:59;;;;;;;11.02;8.82;;;;;;;24.25;51.60;100851.19;5026830;28;20049;-61
2022/08/17 06:44:34;;;;;;;14.35;10.35;;;;;;;24.25;51.64;100853.13;5026045;28;20078;-61
2022/08/17 06:47:24;;;;;;;12.85;10.18;;;;;;;24.24;52.06;100855.06;5026449;28;20105;-61
2022/08/17 06:50:04;;;;;;;14.15;8.93;;;;;;;24.23;51.98;100858.13;5026606;28;20054;-61
2022/08/17 06:52:34;;;;;;;13.55;8.88;;;;;;;24.22;51.74;100865.56;5026557;28;20111;-61
2022/08/17 06:55:20;;;;;;;11.13;8.70;;;;;;;24.21;51.89;100868.63;5026467;28;20080;-61
2022/08/17 06:57:51;;;;;;;10.68;8.77;;;;;;;24.20;52.16;100875.25;5027478;28;20086;-61
2022/08/17 07:00:22;;;;;;;13.30;8.32;;;;;;;24.19;51.99;100885.41;5045960;28;20053;-62
2022/08/17 07:02:57;;;;;;;10.15;8.18;;;;;;;24.19;51.92;100890.09;5044822;28;20092;-61
2022/08/17 07:05:32;;;;;;;10.48;8.15;;;;;;;24.18;51.72;100891.22;5045791;28;20119;-62
2022/08/17 07:08:04;;;;;;;10.95;8.20;;;;;;;24.18;51.72;100888.47;5045197;28;20053;-62
2022/08/17 07:10:38;;;;;;;10.65;7.68;;;;;;;24.17;51.62;100895.91;5036652;28;20081;-62
2022/08/17 07:13:24;;;;;;;10.07;7.68;;;;;;;24.16;52.21;100891.53;5026112;28;20046;-62
2022/08/17 07:15:59;;;;;;;13.32;8.70;;;;;;;24.14;53.18;100879.22;5025837;28;20061;-62
2022/08/17 07:18:31;;;;;;;15.45;9.38;;;;;;;24.14;53.52;100881.97;5026121;28;20061;-62
2022/08/17 07:21:07;;;;;;;9.95;7.43;;;;;;;24.13;52.49;100878.41;5026173;28;20060;-62
2022/08/17 07:23:49;;;;;;;12.23;8.80;;;;;;;24.12;53.24;100885.03;5026116;28;20046;-62
2022/08/17 07:26:17;;;;;;;10.77;8.52;;;;;;;24.10;53.28;100870.81;5026213;28;20056;-62
2022/08/17 07:28:45;;;;;;;12.90;9.23;;;;;;;24.04;52.98;100873.97;5041939;28;20058;-62
2022/08/17 07:31:16;;;;;;;10.63;7.65;;;;;;;24.11;53.03;100890.84;5045379;28;20124;-62
2022/08/17 07:33:59;;;;;;;10.75;8.50;;;;;;;24.11;52.76;100899.88;5044548;28;20045;-62
2022/08/17 07:36:32;;;;;;;8.57;7.18;;;;;;;24.11;52.39;100905.38;5045786;28;20084;-62
2022/08/17 07:39:02;;;;;;;7.55;6.78;;;;;;;24.11;52.60;100905.38;5045750;28;20077;-61
2022/08/17 07:41:38;;;;;;;9.10;7.43;;;;;;;24.12;52.65;100903.44;5044597;28;20077;-62
2022/08/17 07:44:26;;;;;;;11.63;8.73;;;;;;;24.10;53.37;100900.19;5045318;28;20123;-62
2022/08/17 07:49:44;;;;;;;10.50;7.63;;;;;;;24.07;53.04;100898.88;5025880;28;20050;-61
2022/08/17 07:52:28;;;;;;;9.27;7.10;;;;;;;24.10;52.56;100906.50;5025869;28;20046;-61
2022/08/17 07:55:26;;;;;;;10.73;7.93;;;;;;;24.09;53.24;100907.63;5026198;28;20050;-62
2022/08/17 07:57:56;;;;;;;12.05;8.75;;;;;;;24.08;54.24;100897.75;5025814;28;20073;-61
2022/08/17 08:00:23;;;;;;;13.20;8.20;;;;;;;24.08;53.82;100903.25;5025456;28;20046;-61
2022/08/17 08:03:15;;;;;;;9.40;7.97;;;;;;;24.08;53.73;100905.19;5025568;28;20050;-61
2022/08/17 08:05:55;;;;;;;10.77;8.23;;;;;;;24.08;53.67;100902.44;5025484;28;20049;-61
2022/08/17 08:08:31;;;;;;;11.90;9.30;;;;;;;24.08;54.40;100902.44;5028022;28;20077;-61
2022/08/17 08:11:05;;;;;;;;;;;;;;;24.09;53.94;100904.06;5046019;28;20085;-61
2022/08/17 08:13:39;;;;;;;10.23;7.90;;;;;;;24.08;54.01;100899.69;5045154;28;19976;-61
2022/08/17 08:16:24;;;;;;;13.15;8.80;;;;;;;24.07;54.63;100889.84;5045112;28;20056;-61
2022/08/17 08:18:55;;;;;;;13.27;9.07;;;;;;;24.06;54.46;100893.72;5027907;28;20057;-61
2022/08/17 08:21:40;;;;;;;9.70;8.68;;;;;;;24.06;54.46;100890.97;5029237;28;20050;-63
2022/08/17 08:24:30;;;;;;;11.95;8.30;;;;;;;24.07;54.71;100892.59;5029068;28;20456;-62
2022/08/17 08:27:11;;;;;;;12.38;8.10;;;;;;;24.05;54.55;100901.13;5028999;28;20053;-61
2022/08/17 08:29:46;;;;;;;11.77;8.88;;;;;;;24.05;54.76;100901.13;5028683;28;20491;-61
2022/08/17 08:32:24;;;;;;;12.27;8.57;;;;;;;24.04;54.89;100906.94;5029185;28;20420;-61
2022/08/17 08:35:01;;;;;;;12.13;9.40;;;;;;;24.04;54.88;100921.47;5029072;28;20077;-61
2022/08/17 08:37:40;;;;;;;11.57;8.02;;;;;;;24.05;54.63;100942.31;5029193;28;20049;-62
2022/08/17 08:40:20;;;;;;;9.50;7.18;;;;;;;24.06;53.70;100929.41;5029027;28;20054;-61
2022/08/17 08:42:56;;;;;;;10.10;7.30;;;;;;;24.07;54.36;100929.09;5028874;28;20081;-61
2022/08/17 08:45:32;;;;;;;8.65;6.50;;;;;;;24.10;53.81;100933.16;5028441;28;20081;-61
2022/08/17 08:48:13;;;;;;;11.07;7.07;;;;;;;24.11;53.85;100930.09;5028592;28;20492;-61
2022/08/17 08:51:12;;;;;;;12.68;8.02;;;;;;;24.10;54.10;100924.91;5028936;28;20056;-61
2022/08/17 08:53:51;;;;;;;10.48;7.90;;;;;;;24.09;54.35;100915.88;5028492;28;20049;-61
2022/08/17 08:56:27;;;;;;;12.10;7.60;;;;;;;24.09;54.00;100915.88;5028766;28;20088;-62
2022/08/17 08:59:02;;;;;;;13.75;7.75;;;;;;;24.10;54.34;100924.91;5045793;28;20077;-61
2022/08/17 09:01:37;;;;;;;9.70;7.43;;;;;;;24.09;54.11;100918.59;5047919;28;20077;-61
2022/08/17 09:04:25;;;;;;;10.63;7.53;;;;;;;24.08;54.23;100916.97;5041636;28;20062;-61
2022/08/17 09:07:04;;;;;;;12.48;8.40;;;;;;;24.09;54.57;100928.78;5028430;28;20046;-61
2022/08/17 09:09:46;;;;;;;11.32;7.82;;;;;;;24.08;54.35;100929.91;5028437;28;20065;-61
2022/08/17 09:12:21;;;;;;;12.15;8.82;;;;;;;24.06;54.37;100935.72;5028563;28;20050;-61
2022/08/17 09:14:54;;;;;;;9.57;8.32;;;;;;;24.06;54.76;100932.16;5027708;28;20041;-61
2022/08/17 09:17:43;;;;;;;9.75;7.65;;;;;;;24.07;54.49;100944.75;5028400;28;20046;-61
2022/08/17 09:20:18;;;;;;;10.43;7.05;;;;;;;24.08;54.51;100965.59;5028147;28;20053;-61
2022/08/17 09:23:02;;;;;;;9.85;6.25;;;;;;;24.09;54.13;100967.22;5027816;28;20050;-62
2022/08/17 09:25:42;;;;;;;8.03;6.93;;;;;;;24.10;53.83;100971.59;5028121;28;20046;-61
2022/08/17 09:28:18;;;;;;;7.90;6.57;;;;;;;24.11;54.04;100993.25;5027972;28;20109;-62
2022/08/17 09:30:51;;;;;;;8.90;7.00;;;;;;;24.12;53.63;101000.38;5026760;28;20058;-62
2022/08/17 09:33:25;;;;;;;8.68;5.97;;;;;;;24.11;53.40;101008.91;5044689;28;20084;-62
2022/08/17 09:35:56;;;;;;;8.45;6.50;;;;;;;24.14;53.61;101022.03;5047754;28;20586;-62
2022/08/17 09:38:32;;;;;;;8.10;6.07;;;;;;;24.14;53.64;101022.84;5047664;28;20054;-62
2022/08/17 09:41:16;;;;;;;8.55;6.10;;;;;;;24.09;53.19;101016.66;5029972;28;20078;-62
2022/08/17 09:43:53;;;;;;;8.45;6.55;;;;;;;24.13;53.50;101026.72;5027777;28;20049;-62
2022/08/17 09:46:28;;;;;;;8.88;6.32;;;;;;;24.15;53.26;101015.41;5027023;28;20073;-62
2022/08/17 09:49:02;;;;;;;10.13;6.63;;;;;;;24.15;53.68;101015.41;5027583;28;20073;-62
2022/08/17 09:51:35;;;;;;;8.60;6.75;;;;;;;24.14;53.83;101013.78;5027560;28;20050;-63
2022/08/17 09:54:03;;;;;;;8.68;6.85;;;;;;;24.13;53.93;101007.50;5030080;28;20072;-63
2022/08/17 09:57:04;;;;;;;8.60;6.13;;;;;;;24.13;53.51;101010.25;5047193;28;20117;-62
2022/08/17 10:00:12;;;;;;;7.78;6.32;;;;;;;24.13;53.46;101002.00;5046875;28;20067;-62
2022/08/17 10:03:14;;;;;;;8.02;6.72;;;;;;;24.13;54.72;100984.72;5027275;28;20053;-62
2022/08/17 10:05:50;;;;;;;10.88;7.22;;;;;;;24.09;54.40;100987.25;5027041;28;20058;-62
2022/08/17 10:08:32;;;;;;;11.85;7.10;;;;;;;24.11;54.54;100998.75;5027249;28;20058;-62
2022/08/17 10:11:12;;;;;;;9.05;6.57;;;;;;;24.11;54.51;101000.69;5027180;28;20507;-61
2022/08/17 10:13:49;;;;;;;10.65;7.20;;;;;;;24.12;54.66;101010.53;5027294;28;20060;-61
2022/08/17 10:16:30;;;;;;;11.77;7.75;;;;;;;24.11;54.52;100997.94;5026535;28;20065;-61
2022/08/17 10:19:12;;;;;;;10.48;7.00;;;;;;;24.10;55.03;100999.06;5045996;28;20057;-61
2022/08/17 10:27:54;;;;;;;12.25;8.00;;;;;;;24.05;55.78;100982.69;5026905;28;20435;-62
2022/08/17 10:30:26;;;;;;;11.07;8.35;;;;;;;24.04;56.45;100984.63;5026559;28;20073;-61
2022/08/17 10:32:58;;;;;;;10.88;9.05;;;;;;;24.02;56.96;100986.88;5026579;28;20562;-61
2022/08/17 10:35:34;;;;;;;12.55;8.70;;;;;;;24.00;56.52;100989.13;5027164;28;20042;-62
2022/08/17 10:38:28;;;;;;;10.48;8.02;;;;;;;23.98;56.23;100978.44;5026724;28;20050;-62
2022/08/17 10:41:01;;;;;;;10.25;8.48;;;;;;;23.96;57.33;100969.69;5026700;28;20132;-62
2022/08/17 10:43:46;;;;;;;13.90;8.63;;;;;;;23.95;57.57;100968.06;5042126;28;20079;-62
2022/08/17 10:46:50;;;;;;;11.05;9.13;;;;;;;23.92;57.29;100960.44;5035404;28;20046;-61
2022/08/17 10:49:29;;;;;;;12.45;9.15;;;;;;;23.92;58.65;100954.16;5026831;28;20483;-61
2022/08/17 10:51:58;;;;;;;12.48;9.27;;;;;;;23.89;57.95;100955.56;5026661;28;20054;-60
2022/08/17 10:54:48;;;;;;;14.50;10.20;;;;;;;23.89;58.53;100963.00;5026452;28;20054;-59
2022/08/17 10:57:38;;;;;;;17.33;9.30;;;;;;;23.87;58.19;100962.50;5023624;28;20050;-60
2022/08/17 11:00:14;;;;;;;11.70;9.32;;;;;;;23.85;58.92;100957.31;5025939;28;20264;-61
2022/08/17 11:02:49;;;;;;;17.63;9.63;;;;;;;23.85;58.15;100965.53;5026480;28;20060;-60
2022/08/17 11:05:45;;;;;;;14.23;9.10;;;;;;;23.84;57.66;100969.41;5026040;28;20100;-60
2022/08/17 11:08:37;;;;;;;12.55;8.60;;;;;;;23.83;57.75;100976.03;5024954;28;20057;-60
2022/08/17 11:11:23;;;;;;;13.98;8.82;;;;;;;23.83;57.62;100983.44;5026544;28;20046;-60
2022/08/17 11:14:05;;;;;;;11.17;7.53;;;;;;;23.83;57.46;100992.50;5026078;28;20077;-60
2022/08/17 11:16:46;;;;;;;10.93;8.13;;;;;;;23.83;57.29;100991.69;5025437;28;20499;-60
2022/08/17 11:19:37;;;;;;;11.80;8.60;;;;;;;23.82;57.20;100987.31;5026424;28;20064;-60
2022/08/17 11:22:36;;;;;;;8.80;7.57;;;;;;;23.81;57.07;100997.47;5026189;28;20085;-59
2022/08/17 11:25:13;;;;;;;10.18;7.95;;;;;;;23.80;57.26;100998.59;5025750;28;20060;-60
2022/08/17 11:27:42;;;;;;;12.93;7.97;;;;;;;23.79;57.26;101007.13;5026319;28;20050;-60
2022/08/17 11:30:13;;;;;;;12.32;8.77;;;;;;;23.78;57.57;101020.06;5025639;28;20511;-60
2022/08/17 11:32:43;;;;;;;14.68;8.32;;;;;;;23.78;57.40;101027.47;5025993;28;20053;-60
2022/08/17 11:35:38;;;;;;;12.95;8.65;;;;;;;23.78;57.52;101031.03;5025993;28;20049;-60
2022/08/17 11:38:18;;;;;;;10.38;7.22;;;;;;;23.77;57.42;101028.59;5025893;28;20050;-61
2022/08/17 11:41:14;;;;;;;9.80;7.47;;;;;;;23.74;57.38;101026.47;5026040;28;20093;-61
2022/08/17 11:43:59;;;;;;;8.70;7.28;;;;;;;23.77;56.88;101039.56;5025645;28;20061;-60
2022/08/17 11:52:45;;;;;;;8.38;6.65;;;;;;;23.75;56.92;101048.09;5026052;28;20479;-61
2022/08/17 11:55:49;;;;;;;10.40;7.20;;;;;;;23.74;57.23;101046.47;5030056;28;20113;-61
2022/08/17 11:58:41;;;;;;;8.63;7.18;;;;;;;23.74;57.48;101049.22;5029354;28;20077;-61
2022/08/17 12:01:11;;;;;;;8.80;7.63;;;;;;;23.70;57.11;101042.72;5029519;28;20057;-61
2022/08/17 12:03:45;;;;;;;9.45;7.35;;;;;;;23.74;57.21;101045.66;5029513;28;20084;-61
2022/08/17 12:06:43;;;;;;;10.25;7.68;;;;;;;23.73;57.21;101055.03;5029521;28;20056;-61
2022/08/17 12:09:17;;;;;;;10.85;7.72;;;;;;;23.73;57.31;101071.47;5029590;28;20054;-61
2022/08/17 12:11:51;;;;;;;9.93;7.63;;;;;;;23.73;57.42;101066.81;5029564;28;20050;-61
2022/08/17 12:14:45;;;;;;;10.07;7.20;;;;;;;23.73;56.99;101068.75;5029566;28;20057;-61
2022/08/17 12:17:35;;;;;;;8.02;6.50;;;;;;;23.73;57.32;101064.06;5029173;28;20488;-61
2022/08/17 12:20:13;;;;;;;9.60;6.80;;;;;;;23.72;57.05;101059.69;5029172;28;20064;-62
2022/08/17 12:22:55;;;;;;;9.88;6.93;;;;;;;23.72;57.49;101056.13;5048461;28;20058;-60
2022/08/17 12:25:33;;;;;;;8.13;6.85;;;;;;;23.71;57.55;101055.31;5047253;28;20111;-61